Ana Sayfa
METAR-TAF:

METAR-TAF

Havaalanları :

Noumea / La Tontouta, Yeni Kaledonya

Enlem: 22-01S, Boylam: 166-13E, yükseklik: 16 m

Güncel hava durumu gözlemi

Rapor saat 02:30 UTC de 17 dakika önce yapıldı.
Rüzgar batıdan 7 kt, güneybatı ve kuzey/kuzeybatı arasında değişken
Sıcaklık 26°C
Nem 51%
Basınç 1010 hPa
Görüş mesafesi 10 km veya daha fazla
5000 ft yükseklikte parçalı çok bulutlu

METAR: NWWW 160230Z AUTO 27007KT 230V330 9999 BKN050 26/15 Q1010 NOSIG

Saat: 13:47 (02:47 UTC)

Tahmin

Rapor saat 23:00 UTC de 3 saat ve 47 dakika önce yapıldı.
Ayın 16'si saat 00 UTC'den ayın 16'si saat 24 UTC'ye kadar geçerli Tahmin
Rüzgar batıdan 8 kt
Görüş mesafesi 10 km veya daha fazla
3000 ft yükseklikte az bulutlu
Olasılık 40% :
Geçici
ayın 16'si saat 17 UTC'den ayın 16'si saat 21 UTC'ye kadar
Görüş mesafesi: 3000 m
Pus,

TAF: NWWW 152300Z 1600/1624 27008KT 9999 FEW030 PROB40 TEMPO 1617/1621 3000 BR

4.000'den fazla havaalanı için hava durumu gözlemleri ve tahminleri (METAR ve TAF raporları).

Kullanılabilir istasyonlar harita üzerinde sarı ve kırmızı noktalarla gösterilir.

İstasyonun adını görmek için fareyi noktanın üzerinde gezdirin.

Sonrasında hava gözlem ve tahminlerini görmek için tıklayın.

Haritayı değiştirmek için: yaklaştırmak için siyah artı işaretli yeşil düğmeye ve uzaklaştırmak için de eksi işaretli düğmeye hızla tıklayın; bitişik haritalar için yeşil okları kullanın.


METAR-TAF: